Divina Pastora, Brazil
Current Conditions -  °F | °C
As of 9:00 PM on Tuesday 21 Oct 2014 (Local Time) from SBAR Reporting Station
Scattered Clouds Scattered Clouds  
Wind Chill: 79°   Ceiling: Unl
Heat Index: 81°   Visibility: 6mi
Dew Point: 66°   Wind: 13mph
Humidity: 65%   Direction: 120°ESE
Pressure: 29.97"   Gusts: NA
Location:  10.69°S, 37.15°W
Report Text: SBAR 220000Z 12011KT 9999 SCT015 26/19 Q1015
Loading
Personal Weather Stations






























Interactive Weather Map
Tropical Storm Tracking
New forecast layout! Learn more

10-Day Weather Forecast

Advertisements
Track Severe Weather on mobile